createdAt,value
2022-11-20T00:00:20.889Z,15.69
2022-11-20T00:02:47.763Z,15.77
2022-11-20T00:05:14.785Z,15.79
2022-11-20T00:07:41.851Z,15.86
2022-11-20T00:10:09.116Z,15.79
2022-11-20T00:12:36.013Z,15.70
2022-11-20T00:15:02.980Z,15.75
2022-11-20T00:17:29.877Z,15.79
2022-11-20T00:19:56.839Z,15.83
2022-11-20T00:22:23.782Z,15.78
2022-11-20T00:24:50.656Z,15.85
2022-11-20T00:27:17.580Z,15.84
2022-11-20T00:29:44.556Z,15.93
2022-11-20T00:32:11.460Z,16.01
2022-11-20T00:34:38.342Z,15.86
2022-11-20T00:37:05.435Z,15.98
2022-11-20T00:39:32.393Z,16.02
2022-11-20T00:41:59.246Z,16.02
2022-11-20T00:44:26.152Z,16.07
2022-11-20T00:46:53.075Z,16.10
2022-11-20T00:49:20.425Z,16.06
2022-11-20T00:51:47.416Z,16.10
2022-11-20T00:54:14.440Z,16.06
2022-11-20T00:56:41.328Z,16.01
2022-11-20T00:59:10.900Z,16.17
2022-11-20T01:01:38.857Z,16.06
2022-11-20T01:04:06.260Z,16.21
2022-11-20T01:06:39.141Z,15.94
2022-11-20T01:09:11.686Z,16.03
2022-11-20T01:11:42.726Z,15.96
2022-11-20T01:14:16.837Z,15.89
2022-11-20T01:16:46.671Z,15.92
2022-11-20T01:19:18.183Z,16.01
2022-11-20T01:21:47.331Z,16.14
2022-11-20T01:24:16.756Z,16.27
2022-11-20T01:26:46.011Z,16.30
2022-11-20T01:29:19.503Z,16.44
2022-11-20T01:31:46.726Z,16.35
2022-11-20T01:34:15.970Z,16.22
2022-11-20T01:36:43.805Z,16.37
2022-11-20T01:39:17.064Z,16.33
2022-11-20T01:42:08.387Z,16.50
2022-11-20T01:44:52.089Z,16.37
2022-11-20T01:47:35.350Z,16.36
2022-11-20T01:50:10.957Z,16.47
2022-11-20T01:52:46.579Z,16.46
2022-11-20T01:55:18.850Z,16.43
2022-11-20T01:57:48.450Z,16.48
2022-11-20T02:00:18.218Z,16.47
2022-11-20T02:03:02.220Z,16.50
2022-11-20T02:05:58.988Z,16.51
2022-11-20T02:08:26.003Z,16.43
2022-11-20T02:10:53.012Z,16.51
2022-11-20T02:13:38.693Z,16.39
2022-11-20T02:16:09.382Z,16.39
2022-11-20T02:18:36.744Z,16.46
2022-11-20T02:21:21.266Z,16.31
2022-11-20T02:24:08.206Z,16.35
2022-11-20T02:26:47.141Z,16.29
2022-11-20T02:29:16.610Z,16.12
2022-11-20T02:31:44.842Z,16.21
2022-11-20T02:34:12.040Z,16.23
2022-11-20T02:36:41.404Z,16.13
2022-11-20T02:39:09.478Z,16.08
2022-11-20T02:41:38.295Z,16.03
2022-11-20T02:44:06.346Z,16.02
2022-11-20T02:46:34.458Z,16.06
2022-11-20T02:49:03.822Z,15.92
2022-11-20T02:51:31.415Z,16.01
2022-11-20T02:53:58.546Z,16.05
2022-11-20T02:56:25.708Z,16.07
2022-11-20T02:58:52.801Z,16.03
2022-11-20T03:01:19.863Z,16.11
2022-11-20T03:03:46.878Z,16.03
2022-11-20T03:06:13.821Z,16.11
2022-11-20T03:08:40.730Z,16.08
2022-11-20T03:11:08.628Z,16.20
2022-11-20T03:13:36.585Z,16.26
2022-11-20T03:16:12.723Z,16.29
2022-11-20T03:18:41.244Z,16.31
2022-11-20T03:21:09.543Z,16.35
2022-11-20T03:23:37.347Z,16.29
2022-11-20T03:26:13.171Z,16.34
2022-11-20T03:28:40.441Z,16.37
2022-11-20T03:31:09.495Z,16.38
2022-11-20T03:33:36.486Z,16.36
2022-11-20T03:36:08.647Z,16.36
2022-11-20T03:38:35.890Z,16.47
2022-11-20T03:41:05.373Z,16.33
2022-11-20T03:43:33.119Z,16.36
2022-11-20T03:46:00.464Z,16.32
2022-11-20T03:48:28.074Z,16.27
2022-11-20T03:51:15.130Z,16.29
2022-11-20T03:53:42.611Z,16.25
2022-11-20T03:56:11.386Z,16.20
2022-11-20T03:58:43.040Z,16.23
2022-11-20T04:01:15.588Z,16.31
2022-11-20T04:03:43.603Z,16.31
2022-11-20T04:06:13.855Z,16.37
2022-11-20T04:08:41.497Z,16.38
2022-11-20T04:11:22.593Z,16.41
2022-11-20T04:13:54.937Z,16.32
2022-11-20T04:16:24.173Z,16.25
2022-11-20T04:18:59.416Z,16.31
2022-11-20T04:21:27.380Z,16.31
2022-11-20T04:23:55.504Z,16.32
2022-11-20T04:26:24.318Z,16.22
2022-11-20T04:28:51.401Z,16.12
2022-11-20T04:31:21.847Z,16.06
2022-11-20T04:33:49.090Z,16.00
2022-11-20T04:36:19.160Z,16.10
2022-11-20T04:38:46.539Z,16.01
2022-11-20T04:41:19.425Z,16.06
2022-11-20T04:44:00.049Z,16.17
2022-11-20T04:46:28.589Z,16.09
2022-11-20T04:48:55.981Z,16.15
2022-11-20T04:51:23.001Z,16.08
2022-11-20T04:53:50.252Z,16.07
2022-11-20T04:56:17.220Z,16.03
2022-11-20T04:58:45.031Z,15.96
2022-11-20T05:01:14.902Z,15.92
2022-11-20T05:03:42.995Z,15.90
2022-11-20T05:06:12.356Z,15.87
2022-11-20T05:08:39.467Z,15.86
2022-11-20T05:11:09.198Z,15.96
2022-11-20T05:13:36.261Z,15.95
2022-11-20T05:16:05.878Z,15.97
2022-11-20T05:18:33.951Z,15.92
2022-11-20T05:21:01.211Z,15.85
2022-11-20T05:23:28.508Z,15.84
2022-11-20T05:25:59.405Z,15.93
2022-11-20T05:28:27.929Z,15.95
2022-11-20T05:30:54.888Z,15.90
2022-11-20T05:33:22.129Z,15.86
2022-11-20T05:35:49.586Z,15.83
2022-11-20T05:38:17.179Z,15.86
2022-11-20T05:40:44.207Z,15.85
2022-11-20T05:43:11.138Z,15.95
2022-11-20T05:45:38.131Z,15.99
2022-11-20T05:48:05.338Z,16.01
2022-11-20T05:50:32.478Z,15.96
2022-11-20T05:53:00.730Z,15.95
2022-11-20T05:55:28.614Z,15.89
2022-11-20T05:57:56.256Z,16.08
2022-11-20T06:00:23.490Z,15.88
2022-11-20T06:02:50.664Z,15.85
2022-11-20T06:05:17.574Z,15.82
2022-11-20T06:07:44.690Z,15.92
2022-11-20T06:10:12.594Z,16.07
2022-11-20T06:12:39.479Z,16.04
2022-11-20T06:15:07.278Z,16.12
2022-11-20T06:17:34.262Z,16.07
2022-11-20T06:20:01.191Z,16.13
2022-11-20T06:22:28.083Z,16.19
2022-11-20T06:24:55.075Z,16.26
2022-11-20T06:27:21.969Z,16.31
2022-11-20T06:29:48.865Z,16.38
2022-11-20T06:32:15.748Z,16.35
2022-11-20T06:34:42.738Z,16.51
2022-11-20T06:37:09.759Z,16.56
2022-11-20T06:39:36.774Z,16.69
2022-11-20T06:42:03.834Z,16.63
2022-11-20T06:44:30.766Z,16.72
2022-11-20T06:46:57.684Z,16.73
2022-11-20T06:49:24.985Z,16.76
2022-11-20T06:51:52.018Z,16.81
2022-11-20T06:54:18.867Z,16.98
2022-11-20T06:56:49.071Z,17.04
2022-11-20T06:59:16.198Z,16.90
2022-11-20T07:01:43.044Z,16.98
2022-11-20T07:04:10.255Z,17.09
2022-11-20T07:06:37.247Z,17.01
2022-11-20T07:09:08.529Z,17.21
2022-11-20T07:11:38.529Z,17.21
2022-11-20T07:14:05.604Z,17.37
2022-11-20T07:16:32.520Z,17.45
2022-11-20T07:18:59.431Z,17.50
2022-11-20T07:21:26.306Z,17.42
2022-11-20T07:23:53.323Z,17.22
2022-11-20T07:26:20.659Z,17.11
2022-11-20T07:28:47.670Z,17.31
2022-11-20T07:31:18.796Z,17.18
2022-11-20T07:33:46.475Z,17.37
2022-11-20T07:36:13.387Z,17.26
2022-11-20T07:38:40.251Z,17.37
2022-11-20T07:41:07.225Z,17.43
2022-11-20T07:43:39.804Z,17.48
2022-11-20T07:46:08.210Z,17.57
2022-11-20T07:48:35.226Z,17.61
2022-11-20T07:51:02.276Z,17.57
2022-11-20T07:53:29.120Z,17.64
2022-11-20T07:55:56.044Z,17.61
2022-11-20T07:58:23.016Z,17.71
2022-11-20T08:00:50.179Z,17.76
2022-11-20T08:03:21.686Z,17.76
2022-11-20T08:05:51.455Z,17.70
2022-11-20T08:08:18.326Z,17.81
2022-11-20T08:10:45.231Z,17.90
2022-11-20T08:13:30.643Z,17.78
2022-11-20T08:15:57.554Z,17.86
2022-11-20T08:18:32.691Z,17.88
2022-11-20T08:21:04.887Z,17.90
2022-11-20T08:23:32.142Z,18.00
2022-11-20T08:25:59.192Z,18.00
2022-11-20T08:28:26.098Z,17.97
2022-11-20T08:30:59.377Z,18.01
2022-11-20T08:33:26.547Z,17.96
2022-11-20T08:35:53.453Z,17.94
2022-11-20T08:38:20.361Z,18.02
2022-11-20T08:41:07.168Z,18.09
2022-11-20T08:43:34.696Z,17.95
2022-11-20T08:46:01.702Z,17.90
2022-11-20T08:48:28.608Z,17.81
2022-11-20T08:50:59.480Z,17.67
2022-11-20T08:53:27.610Z,17.90
2022-11-20T08:55:54.899Z,17.66
2022-11-20T08:58:21.798Z,17.70
2022-11-20T09:00:48.757Z,17.95
2022-11-20T09:03:15.637Z,17.88
2022-11-20T09:05:43.824Z,17.81
2022-11-20T09:08:10.734Z,17.94
2022-11-20T09:10:40.727Z,18.06
2022-11-20T09:13:07.894Z,18.08
2022-11-20T09:15:35.391Z,18.18
2022-11-20T09:18:04.756Z,18.14
2022-11-20T09:20:32.187Z,18.18
2022-11-20T09:22:59.211Z,18.13
2022-11-20T09:25:26.393Z,18.11
2022-11-20T09:28:00.450Z,18.08
2022-11-20T09:30:28.220Z,18.02
2022-11-20T09:32:55.818Z,17.95
2022-11-20T09:35:22.712Z,18.04
2022-11-20T09:37:51.174Z,18.01
2022-11-20T09:40:22.467Z,17.94
2022-11-20T09:43:17.962Z,18.10
2022-11-20T10:17:39.682Z,17.34
2022-11-20T10:20:26.503Z,17.66
2022-11-20T10:23:09.716Z,17.78
2022-11-20T10:26:02.842Z,17.96
2022-11-20T10:28:55.402Z,18.07
2022-11-20T10:31:47.233Z,18.32
2022-11-20T10:34:27.003Z,18.47
2022-11-20T10:37:04.880Z,18.21
2022-11-20T10:40:13.202Z,18.56
2022-11-20T10:42:46.714Z,18.17
2022-11-20T10:45:25.466Z,18.41
2022-11-20T10:47:56.473Z,18.47
2022-11-20T10:50:24.426Z,18.56
2022-11-20T10:53:02.381Z,18.49
2022-11-20T10:55:41.725Z,18.52
2022-11-20T10:58:15.888Z,18.58
2022-11-20T11:00:43.394Z,18.78
2022-11-20T11:03:36.684Z,18.64
2022-11-20T11:06:11.538Z,18.54
2022-11-20T11:08:42.173Z,18.44
2022-11-20T11:11:28.852Z,18.63
2022-11-20T11:14:13.537Z,18.51
2022-11-20T11:16:56.741Z,18.32
2022-11-20T11:19:23.886Z,18.45
2022-11-20T11:21:55.766Z,18.46
2022-11-20T11:24:45.979Z,18.34
2022-11-20T11:27:18.921Z,18.43
2022-11-20T11:29:48.765Z,18.47
2022-11-20T11:32:19.912Z,18.52
2022-11-20T11:34:59.470Z,18.45
2022-11-20T11:37:33.933Z,18.34
2022-11-20T11:40:23.762Z,18.37
2022-11-20T11:43:02.188Z,18.38
2022-11-20T11:45:29.414Z,18.44
2022-11-20T11:47:59.866Z,18.64
2022-11-20T11:50:28.966Z,18.75
2022-11-20T11:53:15.400Z,18.71
2022-11-20T11:56:09.866Z,18.81
2022-11-20T11:58:50.704Z,18.92
2022-11-20T12:01:35.276Z,18.82
2022-11-20T12:04:23.578Z,18.76
2022-11-20T12:06:58.960Z,18.63
2022-11-20T12:09:38.682Z,18.84
2022-11-20T12:12:21.135Z,18.79
2022-11-20T12:14:52.013Z,18.65
2022-11-20T12:17:19.040Z,18.55
2022-11-20T12:19:45.998Z,18.68
2022-11-20T12:22:46.936Z,18.69
2022-11-20T12:25:16.786Z,18.56
2022-11-20T12:28:20.589Z,18.47
2022-11-20T12:31:15.200Z,18.45
2022-11-20T12:33:56.839Z,18.36
2022-11-20T12:36:29.612Z,18.45
2022-11-20T12:38:59.685Z,18.45
2022-11-20T12:42:00.754Z,18.38
2022-11-20T12:45:13.223Z,18.45
2022-11-20T12:47:48.816Z,18.45
2022-11-20T12:51:13.550Z,18.44
2022-11-20T12:54:18.130Z,18.48
2022-11-20T12:57:03.446Z,18.32
2022-11-20T12:59:48.666Z,18.42
2022-11-20T13:02:39.426Z,18.37
2022-11-20T13:05:33.792Z,18.21
2022-11-20T13:08:03.160Z,18.15
2022-11-20T13:10:50.257Z,18.10
2022-11-20T13:13:31.092Z,18.12
2022-11-20T13:16:26.278Z,17.98
2022-11-20T13:18:53.429Z,18.02
2022-11-20T13:21:36.731Z,17.96
2022-11-20T13:24:07.469Z,17.89
2022-11-20T13:26:35.229Z,17.94
2022-11-20T13:29:17.588Z,17.84
2022-11-20T13:31:47.043Z,17.89
2022-11-20T13:34:27.167Z,17.81
2022-11-20T13:36:56.906Z,17.76
2022-11-20T13:39:34.740Z,17.80
2022-11-20T13:42:04.371Z,17.79
2022-11-20T13:44:36.798Z,17.71
2022-11-20T13:47:03.764Z,17.79
2022-11-20T13:49:45.833Z,17.71
2022-11-20T13:52:50.283Z,17.74
2022-11-20T13:55:20.541Z,17.83
2022-11-20T13:57:50.487Z,17.78
2022-11-20T14:00:20.722Z,17.79
2022-11-20T14:03:06.270Z,17.77
2022-11-20T14:05:38.482Z,17.77
2022-11-20T14:08:11.838Z,17.70
2022-11-20T14:10:40.594Z,17.74
2022-11-20T14:13:22.087Z,17.68
2022-11-20T14:15:48.983Z,17.79
2022-11-20T14:18:21.431Z,17.90
2022-11-20T14:20:49.114Z,17.64
2022-11-20T14:23:30.316Z,17.81
2022-11-20T14:25:58.061Z,17.66
2022-11-20T14:28:31.174Z,17.61
2022-11-20T14:30:58.879Z,17.69
2022-11-20T14:33:28.125Z,17.64
2022-11-20T14:35:57.490Z,17.87
2022-11-20T14:38:29.689Z,17.76
2022-11-20T14:41:07.759Z,17.77
2022-11-20T14:43:37.012Z,17.72
2022-11-20T14:46:10.158Z,17.56
2022-11-20T14:48:43.008Z,17.63
2022-11-20T14:51:34.052Z,17.56
2022-11-20T14:54:12.062Z,17.55
2022-11-20T14:56:39.119Z,17.45
2022-11-20T14:59:06.763Z,17.49
2022-11-20T15:01:34.848Z,17.46
2022-11-20T15:04:12.241Z,17.52
2022-11-20T15:06:50.468Z,17.66
2022-11-20T15:09:17.477Z,17.42
2022-11-20T15:11:58.002Z,17.46
2022-11-20T15:14:26.715Z,17.41
2022-11-20T15:16:54.293Z,17.49
2022-11-20T15:19:25.854Z,17.38
2022-11-20T15:21:53.182Z,17.35
2022-11-20T15:24:20.812Z,17.42
2022-11-20T15:26:48.840Z,17.49
2022-11-20T15:29:20.345Z,17.53
2022-11-20T15:31:47.353Z,17.37
2022-11-20T15:34:16.100Z,17.26
2022-11-20T15:36:44.576Z,17.31
2022-11-20T15:39:12.703Z,17.34
2022-11-20T15:41:40.020Z,17.46
2022-11-20T15:44:07.255Z,17.41
2022-11-20T15:46:39.578Z,17.48
2022-11-20T15:49:10.239Z,17.48
2022-11-20T15:51:39.436Z,17.48
2022-11-20T15:54:23.675Z,17.57
2022-11-20T15:56:53.431Z,17.52
2022-11-20T15:59:21.096Z,17.43
2022-11-20T16:01:48.011Z,17.47
2022-11-20T16:04:17.660Z,17.42
2022-11-20T16:06:44.641Z,17.38
2022-11-20T16:09:11.814Z,17.27
2022-11-20T16:11:39.037Z,17.41
2022-11-20T16:14:26.026Z,17.33
2022-11-20T16:16:53.320Z,17.36
2022-11-20T16:19:20.302Z,17.38
2022-11-20T16:21:47.756Z,17.34
2022-11-20T16:24:15.441Z,17.27
2022-11-20T16:26:42.938Z,17.33
2022-11-20T16:29:11.231Z,17.44
2022-11-20T16:31:38.538Z,17.39
2022-11-20T16:34:12.447Z,17.44
2022-11-20T16:36:45.852Z,17.55
2022-11-20T16:39:13.460Z,17.58
2022-11-20T16:41:40.366Z,17.49
2022-11-20T16:44:10.229Z,17.55
2022-11-20T16:46:37.380Z,17.49
2022-11-20T16:49:13.363Z,17.59
2022-11-20T16:51:40.344Z,17.57
2022-11-20T16:54:09.435Z,17.65
2022-11-20T16:56:36.909Z,17.58
2022-11-20T16:59:04.653Z,17.72
2022-11-20T17:01:32.044Z,16.82
2022-11-20T17:04:01.961Z,15.84
2022-11-20T17:06:31.870Z,14.63
2022-11-20T17:09:00.034Z,14.08
2022-11-20T17:11:27.659Z,13.68
2022-11-20T17:14:03.742Z,13.39
2022-11-20T17:16:31.435Z,13.16
2022-11-20T17:19:02.827Z,12.95
2022-11-20T17:21:36.306Z,12.86
2022-11-20T17:24:06.587Z,12.74
2022-11-20T17:26:34.709Z,12.67
2022-11-20T17:29:07.474Z,12.64
2022-11-20T17:31:35.223Z,12.67
2022-11-20T17:34:02.712Z,12.60
2022-11-20T17:36:30.979Z,12.51
2022-11-20T17:38:58.549Z,12.48
2022-11-20T17:41:28.351Z,12.23
2022-11-20T17:43:57.676Z,12.03
2022-11-20T17:46:29.995Z,11.64
2022-11-20T17:48:57.130Z,11.45
2022-11-20T17:51:27.011Z,11.39
2022-11-20T17:53:56.842Z,11.37
2022-11-20T17:56:42.509Z,11.39
2022-11-20T17:59:12.370Z,11.27
2022-11-20T18:01:40.670Z,11.12
2022-11-20T18:04:07.595Z,11.12
2022-11-20T18:06:34.504Z,11.02
2022-11-20T18:09:04.284Z,10.97
2022-11-20T18:11:39.578Z,10.92
2022-11-20T18:14:32.843Z,10.91
2022-11-20T18:17:09.718Z,10.88
2022-11-20T18:19:48.072Z,10.88
2022-11-20T18:22:27.830Z,10.62
2022-11-20T18:24:54.834Z,10.48
2022-11-20T18:27:23.317Z,10.45
2022-11-20T18:29:52.194Z,10.39
2022-11-20T18:32:21.634Z,10.39
2022-11-20T18:34:49.275Z,10.39
2022-11-20T18:37:17.127Z,10.35
2022-11-20T18:39:44.442Z,10.35
2022-11-20T18:42:32.457Z,10.32
2022-11-20T18:45:00.453Z,10.28
2022-11-20T18:47:32.130Z,10.29
2022-11-20T18:50:01.277Z,10.29
2022-11-20T18:52:34.196Z,10.33
2022-11-20T18:55:02.702Z,10.35
2022-11-20T18:57:30.109Z,10.40
2022-11-20T19:00:06.374Z,10.42
2022-11-20T19:02:41.093Z,10.44
2022-11-20T19:05:09.996Z,10.45
2022-11-20T19:07:36.965Z,10.45
2022-11-20T19:10:05.298Z,10.47
2022-11-20T19:12:32.225Z,10.50
2022-11-20T19:14:59.121Z,10.51
2022-11-20T19:17:26.072Z,10.53
2022-11-20T19:19:55.056Z,10.55
2022-11-20T19:22:22.488Z,10.57
2022-11-20T19:24:49.848Z,10.56
2022-11-20T19:27:17.046Z,10.58
2022-11-20T19:29:44.137Z,10.61
2022-11-20T19:32:11.479Z,10.61
2022-11-20T19:34:38.456Z,10.66
2022-11-20T19:37:05.560Z,10.71
2022-11-20T19:39:32.541Z,10.75
2022-11-20T19:41:59.534Z,10.77
2022-11-20T19:44:26.393Z,10.80
2022-11-20T19:46:53.787Z,10.83
2022-11-20T19:49:20.917Z,10.82
2022-11-20T19:51:49.543Z,10.83
2022-11-20T19:54:17.560Z,10.83
2022-11-20T19:56:45.612Z,10.84
2022-11-20T19:59:13.175Z,10.82
2022-11-20T20:01:40.280Z,10.94
2022-11-20T20:04:07.329Z,11.03
2022-11-20T20:06:36.382Z,11.10
2022-11-20T20:09:09.133Z,11.30
2022-11-20T20:11:37.192Z,11.47
2022-11-20T20:14:10.280Z,11.73
2022-11-20T20:16:37.486Z,11.92
2022-11-20T20:19:05.621Z,12.15
2022-11-20T20:21:36.428Z,12.13
2022-11-20T20:24:04.285Z,12.37
2022-11-20T20:26:32.684Z,12.50
2022-11-20T20:29:01.519Z,11.93
2022-11-20T20:31:31.102Z,12.20
2022-11-20T20:33:58.358Z,12.21
2022-11-20T20:36:25.596Z,11.70
2022-11-20T20:38:57.161Z,11.91
2022-11-20T20:41:25.137Z,12.09
2022-11-20T20:44:10.916Z,12.29
2022-11-20T20:46:38.109Z,12.36
2022-11-20T20:49:05.235Z,11.86
2022-11-20T20:51:32.144Z,11.80
2022-11-20T20:53:59.714Z,11.67
2022-11-20T20:56:26.960Z,11.71
2022-11-20T20:58:54.004Z,11.59
2022-11-20T21:01:21.524Z,11.53
2022-11-20T21:03:48.724Z,11.29
2022-11-20T21:06:15.653Z,11.22
2022-11-20T21:08:44.465Z,11.15
2022-11-20T21:11:17.878Z,11.17
2022-11-20T21:13:46.612Z,11.16
2022-11-20T21:16:15.630Z,11.18
2022-11-20T21:18:43.042Z,11.10
2022-11-20T21:21:32.012Z,11.17
2022-11-20T21:23:59.314Z,11.29
2022-11-20T21:26:26.387Z,11.28
2022-11-20T21:28:53.582Z,11.52
2022-11-20T21:31:23.608Z,11.73
2022-11-20T21:33:53.912Z,11.77
2022-11-20T21:36:31.442Z,11.88
2022-11-20T21:38:59.691Z,11.96
2022-11-20T21:41:28.493Z,12.20
2022-11-20T21:44:29.560Z,12.35
2022-11-20T21:46:45.081Z,12.44
2022-11-20T21:49:12.487Z,12.30
2022-11-20T21:51:39.429Z,12.07
2022-11-20T21:54:06.317Z,12.34
2022-11-20T21:56:33.349Z,12.17
2022-11-20T21:59:00.725Z,12.13
2022-11-20T22:01:30.442Z,12.16
2022-11-20T22:04:00.246Z,12.33
2022-11-20T22:06:32.696Z,12.22
2022-11-20T22:09:00.534Z,12.13
2022-11-20T22:11:27.888Z,12.16
2022-11-20T22:14:13.410Z,12.29
2022-11-20T22:16:40.463Z,12.17
2022-11-20T22:19:07.828Z,12.18
2022-11-20T22:21:35.307Z,12.19
2022-11-20T22:24:02.286Z,12.34
2022-11-20T22:26:33.969Z,12.12
2022-11-20T22:29:04.933Z,12.25
2022-11-20T22:31:32.433Z,12.22
2022-11-20T22:34:02.204Z,12.23
2022-11-20T22:36:31.030Z,11.97
2022-11-20T22:38:58.801Z,11.95
2022-11-20T22:41:29.165Z,11.96
2022-11-20T22:43:58.451Z,11.82
2022-11-20T22:46:27.315Z,11.87
2022-11-20T22:48:56.404Z,11.91
2022-11-20T22:51:28.482Z,11.84
2022-11-20T22:53:55.544Z,11.80
2022-11-20T22:56:22.996Z,11.90
2022-11-20T22:58:51.990Z,12.07
2022-11-20T23:01:34.785Z,12.12
2022-11-20T23:04:04.172Z,12.04
2022-11-20T23:06:34.516Z,12.21
2022-11-20T23:09:05.652Z,12.31
2022-11-20T23:11:33.492Z,12.43
2022-11-20T23:14:03.375Z,12.38
2022-11-20T23:16:31.536Z,12.35
2022-11-20T23:19:01.406Z,12.36
2022-11-20T23:21:28.832Z,12.19
2022-11-20T23:23:57.579Z,12.42
2022-11-20T23:26:30.279Z,12.39
2022-11-20T23:28:58.842Z,12.33
2022-11-20T23:31:28.426Z,12.17
2022-11-20T23:33:55.337Z,12.05
2022-11-20T23:36:22.762Z,12.12
2022-11-20T23:38:49.863Z,12.06
2022-11-20T23:41:16.854Z,12.15
2022-11-20T23:43:43.873Z,12.23
2022-11-20T23:46:15.196Z,12.37
2022-11-20T23:48:45.416Z,12.37
2022-11-20T23:51:13.169Z,12.37
2022-11-20T23:53:40.266Z,12.45
2022-11-20T23:56:07.899Z,12.45
2022-11-20T23:58:38.858Z,12.50
